createdAt,value
2023-10-02T06:32:24.296Z,30.73
2023-10-02T06:38:33.176Z,33.85
2023-10-02T06:46:15.165Z,34.00
2023-10-02T06:48:48.513Z,34.20
2023-10-02T06:51:16.169Z,30.65
2023-10-02T06:58:16.413Z,32.15
2023-10-02T07:00:56.341Z,31.33
2023-10-02T07:03:26.075Z,32.17
2023-10-02T07:05:53.787Z,27.98
2023-10-02T07:08:28.165Z,28.08
2023-10-02T07:10:59.117Z,27.50
2023-10-02T07:13:27.094Z,32.15
2023-10-02T07:16:01.340Z,27.65
2023-10-02T07:18:46.842Z,28.30
2023-10-02T07:21:17.823Z,29.25
2023-10-02T07:23:46.540Z,28.85
2023-10-02T07:26:21.562Z,31.90
2023-10-02T07:28:52.818Z,30.73
2023-10-02T07:31:22.937Z,31.25
2023-10-02T07:33:56.868Z,32.80
2023-10-02T07:36:28.603Z,30.88
2023-10-02T07:38:56.245Z,29.00
2023-10-02T07:41:27.347Z,29.92
2023-10-02T07:44:08.998Z,26.88
2023-10-02T07:46:38.235Z,30.25
2023-10-02T07:49:07.170Z,29.33
2023-10-02T07:51:37.859Z,26.88
2023-10-02T07:54:14.888Z,31.40
2023-10-02T07:56:48.867Z,29.98
2023-10-02T07:59:19.945Z,26.05
2023-10-02T08:01:48.061Z,29.90
2023-10-02T08:04:15.636Z,30.92
2023-10-02T08:06:52.825Z,28.77
2023-10-02T08:09:38.100Z,26.25
2023-10-02T08:12:09.781Z,28.80
2023-10-02T08:14:43.116Z,27.00
2023-10-02T08:17:23.661Z,28.33
2023-10-02T08:20:17.483Z,26.23
2023-10-02T08:22:52.691Z,32.17
2023-10-02T08:25:25.038Z,31.58
2023-10-02T08:28:00.175Z,28.02
2023-10-02T08:30:33.586Z,27.88
2023-10-02T08:33:33.709Z,32.95
2023-10-02T08:36:11.542Z,30.75
2023-10-02T08:38:41.953Z,29.65
2023-10-02T08:41:09.709Z,31.95
2023-10-02T08:43:43.658Z,28.73
2023-10-02T08:46:23.418Z,31.38
2023-10-02T08:48:56.425Z,30.92
2023-10-02T08:51:50.921Z,29.05
2023-10-02T08:54:20.308Z,31.25
2023-10-02T08:57:10.231Z,31.58
2023-10-02T08:59:42.402Z,29.70
2023-10-02T09:02:18.518Z,28.98
2023-10-02T09:04:55.458Z,29.70
2023-10-02T09:07:49.373Z,27.88
2023-10-02T09:10:27.062Z,29.95
2023-10-02T09:13:25.842Z,35.45
2023-10-02T09:15:55.256Z,25.15
2023-10-02T09:18:57.575Z,33.40
2023-10-02T09:21:40.466Z,29.65
2023-10-02T09:24:22.660Z,32.65
2023-10-02T09:26:50.955Z,31.27
2023-10-02T09:29:20.548Z,29.30
2023-10-02T09:31:50.305Z,31.37
2023-10-02T09:34:31.288Z,27.10
2023-10-02T09:37:18.339Z,30.33
2023-10-02T09:40:16.202Z,30.45
2023-10-02T09:42:49.764Z,25.83
2023-10-02T09:45:32.539Z,27.90
2023-10-02T09:48:32.445Z,25.40
2023-10-02T09:51:07.896Z,29.38
2023-10-02T09:54:03.883Z,30.90
2023-10-02T09:57:13.350Z,28.83
2023-10-02T09:59:48.739Z,30.00
2023-10-02T10:02:23.321Z,29.05
2023-10-02T10:05:13.934Z,29.60
2023-10-02T10:07:53.775Z,32.20
2023-10-02T10:10:51.641Z,28.92
2023-10-02T10:13:47.730Z,27.77
2023-10-02T10:16:21.085Z,28.20
2023-10-02T10:19:10.065Z,29.50
2023-10-02T10:21:59.489Z,32.78
2023-10-02T10:24:58.036Z,30.52
2023-10-02T10:27:44.477Z,33.83
2023-10-02T10:30:26.164Z,33.60
2023-10-02T10:33:15.522Z,30.33
2023-10-02T10:35:58.489Z,31.88
2023-10-02T10:38:34.852Z,34.00
2023-10-02T10:41:33.429Z,39.22
2023-10-02T10:44:08.023Z,34.90
2023-10-02T10:46:38.740Z,35.92
2023-10-02T10:49:17.545Z,36.33
2023-10-02T10:51:45.400Z,36.00
2023-10-02T10:54:48.850Z,32.15
2023-10-02T10:57:28.415Z,36.38
2023-10-02T11:00:27.206Z,33.00
2023-10-02T11:03:10.177Z,33.75
2023-10-02T11:05:39.360Z,35.63
2023-10-02T11:08:25.548Z,34.95
2023-10-02T11:11:13.545Z,37.30
2023-10-02T11:13:54.709Z,37.10
2023-10-02T11:16:39.034Z,41.58
2023-10-02T11:19:32.731Z,39.35
2023-10-02T11:22:29.603Z,37.10
2023-10-02T11:24:56.977Z,39.17
2023-10-02T11:27:25.989Z,36.47
2023-10-02T11:30:04.002Z,41.60
2023-10-02T11:32:55.793Z,40.58
2023-10-02T11:35:31.168Z,41.90
2023-10-02T11:38:00.557Z,44.38
2023-10-02T11:40:30.225Z,40.17
2023-10-02T11:43:01.511Z,41.75
2023-10-02T11:45:34.023Z,42.47
2023-10-02T11:48:02.084Z,39.83
2023-10-02T11:50:29.761Z,46.80
2023-10-02T11:52:57.353Z,43.55
2023-10-02T11:55:25.931Z,45.35
2023-10-02T11:57:53.544Z,41.55
2023-10-02T12:00:25.715Z,41.97
2023-10-02T12:02:53.541Z,42.00
2023-10-02T12:05:21.198Z,39.97
2023-10-02T12:07:48.745Z,44.78
2023-10-02T12:10:16.785Z,46.58
2023-10-02T12:12:46.782Z,47.78
2023-10-02T12:15:17.419Z,55.03
2023-10-02T12:17:45.679Z,51.40
2023-10-02T12:20:20.503Z,56.05
2023-10-02T12:22:48.546Z,58.03
2023-10-02T12:25:17.137Z,55.95
2023-10-02T12:27:45.479Z,55.47
2023-10-02T12:30:13.956Z,51.20
2023-10-02T12:32:42.275Z,50.95
2023-10-02T12:35:10.666Z,49.40
2023-10-02T12:37:38.359Z,52.67
2023-10-02T12:40:13.542Z,50.80
2023-10-02T12:42:41.180Z,51.50
2023-10-02T12:45:09.660Z,51.33
2023-10-02T12:47:41.974Z,50.30
2023-10-02T12:50:12.669Z,50.53
2023-10-02T12:52:40.799Z,52.63
2023-10-02T12:55:09.132Z,53.47
2023-10-02T12:57:39.956Z,46.85
2023-10-02T13:00:18.351Z,44.25
2023-10-02T13:02:46.633Z,45.85
2023-10-02T13:05:14.572Z,42.63
2023-10-02T13:07:43.042Z,40.03
2023-10-02T13:10:12.095Z,34.85
2023-10-02T13:12:39.914Z,36.57
2023-10-02T13:15:09.291Z,37.65
2023-10-02T13:17:36.849Z,30.60
2023-10-02T13:20:09.215Z,34.35
2023-10-02T13:22:39.587Z,32.53
2023-10-02T13:25:08.633Z,28.73
2023-10-02T13:27:38.090Z,28.37
2023-10-02T13:30:10.292Z,30.65
2023-10-02T13:32:38.169Z,27.80
2023-10-02T13:35:06.841Z,26.55
2023-10-02T13:37:36.880Z,24.50
2023-10-02T13:40:19.509Z,29.48
2023-10-02T13:42:50.615Z,25.95
2023-10-02T13:45:20.394Z,23.73
2023-10-02T13:47:49.880Z,28.63
2023-10-02T13:50:17.581Z,30.08
2023-10-02T13:52:45.437Z,31.52
2023-10-02T13:55:24.206Z,34.45
2023-10-02T13:57:52.997Z,35.53
2023-10-02T14:00:21.742Z,38.30
2023-10-02T14:02:52.825Z,39.47
2023-10-02T14:05:20.593Z,36.83
2023-10-02T14:07:50.091Z,38.30
2023-10-02T14:10:19.153Z,41.47
2023-10-02T14:12:47.882Z,44.83
2023-10-02T14:15:19.211Z,39.90
2023-10-02T14:17:48.293Z,33.22
2023-10-02T14:20:16.532Z,34.80
2023-10-02T14:22:51.959Z,32.38
2023-10-02T14:25:24.969Z,37.03
2023-10-02T14:27:54.180Z,34.08
2023-10-02T14:30:24.051Z,37.40
2023-10-02T14:32:54.105Z,35.13
2023-10-02T14:35:22.288Z,39.00
2023-10-02T14:37:50.040Z,33.00
2023-10-02T14:40:21.181Z,38.72
2023-10-02T14:42:49.483Z,35.22
2023-10-02T14:45:17.380Z,38.00
2023-10-02T14:47:45.392Z,38.65
2023-10-02T14:50:14.278Z,36.22
2023-10-02T14:52:45.768Z,38.33
2023-10-02T14:55:19.260Z,39.78
2023-10-02T14:57:50.541Z,40.33
2023-10-02T15:00:25.627Z,45.78
2023-10-02T15:02:55.725Z,43.88
2023-10-02T15:05:24.397Z,49.05
2023-10-02T15:07:55.128Z,43.55
2023-10-02T15:10:27.758Z,44.15
2023-10-02T15:12:55.899Z,48.88
2023-10-02T15:15:29.368Z,43.72
2023-10-02T15:18:02.396Z,45.08
2023-10-02T15:20:33.599Z,47.85
2023-10-02T15:23:01.078Z,44.47
2023-10-02T15:25:31.744Z,46.63
2023-10-02T15:28:01.742Z,46.00
2023-10-02T15:30:30.237Z,46.58
2023-10-02T15:32:58.296Z,47.00
2023-10-02T15:35:26.690Z,49.53
2023-10-02T15:37:55.624Z,51.80
2023-10-02T15:40:24.772Z,47.87
2023-10-02T15:42:54.856Z,51.45
2023-10-02T15:45:26.218Z,46.00
2023-10-02T15:47:56.774Z,44.40
2023-10-02T15:50:30.069Z,42.90
2023-10-02T15:53:00.005Z,44.72
2023-10-02T15:55:28.494Z,44.72
2023-10-02T15:57:56.022Z,43.85
2023-10-02T16:00:27.598Z,45.88
2023-10-02T16:03:02.413Z,42.13
2023-10-02T16:05:33.592Z,43.17
2023-10-02T16:08:01.741Z,44.08
2023-10-02T16:10:30.521Z,45.38
2023-10-02T16:12:58.753Z,43.80
2023-10-02T16:15:33.487Z,45.08
2023-10-02T16:18:00.967Z,45.33
2023-10-02T16:20:31.229Z,43.10
2023-10-02T16:22:59.931Z,41.13
2023-10-02T16:25:29.992Z,39.30
2023-10-02T16:30:27.375Z,40.50
2023-10-02T16:32:56.641Z,38.90
2023-10-02T16:35:32.125Z,42.22
2023-10-02T16:38:05.612Z,38.55
2023-10-02T16:40:34.767Z,39.80
2023-10-02T16:43:06.205Z,37.05
2023-10-02T16:45:34.484Z,36.72
2023-10-02T16:48:04.423Z,38.13
2023-10-02T16:50:32.838Z,35.97
2023-10-02T16:53:00.808Z,35.13
2023-10-02T16:55:28.966Z,34.72
2023-10-02T16:57:57.894Z,34.22
2023-10-02T17:00:27.243Z,36.45
2023-10-02T17:03:00.150Z,34.83
2023-10-02T17:05:28.182Z,35.58
2023-10-02T17:07:55.969Z,33.13
2023-10-02T17:10:25.005Z,34.42
2023-10-02T17:12:58.778Z,33.05
2023-10-02T17:15:29.804Z,32.78
2023-10-02T17:17:59.293Z,32.47
2023-10-02T17:20:29.503Z,37.08
2023-10-02T17:22:58.598Z,30.30
2023-10-02T17:25:27.410Z,34.40
2023-10-02T17:28:01.684Z,31.85
2023-10-02T17:30:32.832Z,28.80
2023-10-02T17:33:03.370Z,29.60
2023-10-02T17:35:31.221Z,32.65
2023-10-02T17:38:00.500Z,32.28
2023-10-02T17:40:28.109Z,30.97
2023-10-02T17:42:56.779Z,27.17
2023-10-02T17:45:24.535Z,28.73
2023-10-02T17:47:52.195Z,31.75
2023-10-02T17:50:20.140Z,29.20
2023-10-02T17:52:48.214Z,31.27
2023-10-02T17:55:15.856Z,28.17
2023-10-02T17:57:43.539Z,29.48
2023-10-02T18:00:14.682Z,27.15
2023-10-02T18:02:43.286Z,29.85
2023-10-02T18:05:12.398Z,31.48
2023-10-02T18:07:40.749Z,28.02
2023-10-02T18:10:11.701Z,27.05
2023-10-02T18:12:42.508Z,27.15
2023-10-02T18:15:15.709Z,25.25
2023-10-02T18:17:43.624Z,29.98
2023-10-02T18:20:14.237Z,26.02
2023-10-02T18:22:41.985Z,31.40
2023-10-02T18:25:11.184Z,28.98
2023-10-02T18:27:41.596Z,28.92
2023-10-02T18:30:10.859Z,28.73
2023-10-02T18:32:39.419Z,28.10
2023-10-02T18:35:07.631Z,30.27
2023-10-02T18:37:35.682Z,29.00
2023-10-02T18:40:09.824Z,27.85
2023-10-02T18:42:38.495Z,28.88
2023-10-02T18:45:08.052Z,26.05
2023-10-02T18:47:36.163Z,26.97
2023-10-02T18:50:09.777Z,28.27
2023-10-02T18:52:39.988Z,27.83
2023-10-02T18:55:10.070Z,23.35
2023-10-02T18:57:40.208Z,27.63
2023-10-02T19:02:46.555Z,23.13
2023-10-02T19:05:14.242Z,26.88
2023-10-02T19:07:43.495Z,26.90
2023-10-02T19:10:11.485Z,27.83
2023-10-02T19:12:39.084Z,23.88
2023-10-02T19:15:11.011Z,26.38
2023-10-02T19:17:39.176Z,26.13
2023-10-02T19:20:07.894Z,28.13
2023-10-02T19:22:36.861Z,27.45
2023-10-02T19:25:04.768Z,30.52
2023-10-02T19:27:32.200Z,26.05
2023-10-02T19:30:00.111Z,30.95
2023-10-02T19:32:28.062Z,26.02
2023-10-02T19:34:55.805Z,25.17
2023-10-02T19:37:23.492Z,30.55
2023-10-02T19:39:50.969Z,27.50
2023-10-02T19:42:20.263Z,29.15
2023-10-02T19:44:50.114Z,29.40
2023-10-02T19:47:17.970Z,30.33
2023-10-02T19:49:45.524Z,29.65
2023-10-02T19:52:13.067Z,30.80
2023-10-02T19:54:42.922Z,28.02
2023-10-02T19:57:10.361Z,34.28
2023-10-02T19:59:38.173Z,29.85
2023-10-02T20:02:06.619Z,26.92
2023-10-02T20:04:34.171Z,28.45
2023-10-02T20:07:01.608Z,29.70
2023-10-02T20:09:29.082Z,31.92
2023-10-02T20:11:57.117Z,28.13
2023-10-02T20:14:24.754Z,31.35
2023-10-02T20:16:52.234Z,28.67
2023-10-02T20:19:20.032Z,33.42
2023-10-02T20:21:47.725Z,34.15
2023-10-02T20:24:19.249Z,29.70
2023-10-02T20:26:47.851Z,31.35
2023-10-02T20:29:15.940Z,30.77
